Time;durP1;ratioP1;P1;durP2;ratioP2;P2;SDS_P1;SDS_P2;PMS_P1;PMS_P2;Temp;Humidity;BMP_temperature;BMP_pressure;BME280_temperature;BME280_humidity;BME280_pressure;Samples;Min_cycle;Max_cycle;Signal;HPM_P1;HPM_P2
2024/01/08 05:02:37;;;;;;;1.25;1.25;;;-0.20;99.90;;;;;;4889960;29;20222;-71
2024/01/08 05:05:04;;;;;;;1.80;1.17;;;-0.20;99.90;;;;;;4894276;29;20208;-72
2024/01/08 05:07:31;;;;;;;0.73;0.73;;;-0.20;99.90;;;;;;4894467;29;20259;-71
2024/01/08 05:09:58;;;;;;;1.75;1.42;;;-0.20;99.90;;;;;;4897315;29;20215;-71
2024/01/08 05:12:25;;;;;;;1.20;1.20;;;-0.20;99.90;;;;;;4893249;29;20284;-71
2024/01/08 05:14:51;;;;;;;1.13;1.02;;;-0.20;99.90;;;;;;4897711;29;20238;-71
2024/01/08 05:17:18;;;;;;;4.65;0.75;;;-0.20;99.90;;;;;;4893919;29;20219;-71
2024/01/08 05:19:46;;;;;;;0.40;0.32;;;-0.20;99.90;;;;;;4897341;29;20583;-70
2024/01/08 05:22:13;;;;;;;1.10;1.10;;;-0.20;99.90;;;;;;4894285;29;20227;-71
2024/01/08 05:24:39;;;;;;;1.80;1.73;;;-0.20;99.90;;;;;;4891194;29;20662;-71
2024/01/08 05:27:06;;;;;;;1.48;1.38;;;-0.20;99.90;;;;;;4889978;29;20212;-72
2024/01/08 05:29:33;;;;;;;4.40;2.67;;;-0.20;99.90;;;;;;4887562;29;20219;-70
2024/01/08 05:32:00;;;;;;;1.67;1.58;;;-0.20;99.90;;;;;;4893034;29;20742;-70
2024/01/08 05:34:26;;;;;;;2.13;2.03;;;-0.30;99.90;;;;;;4894456;29;20234;-70
2024/01/08 05:36:54;;;;;;;2.83;1.98;;;-0.30;99.90;;;;;;4899924;29;20213;-72
2024/01/08 05:39:21;;;;;;;4.43;2.50;;;-0.40;99.90;;;;;;4898529;29;20697;-71
2024/01/08 05:41:48;;;;;;;1.70;1.60;;;-0.40;99.90;;;;;;4895933;29;20230;-71
2024/01/08 05:44:14;;;;;;;2.22;2.13;;;-0.40;99.90;;;;;;4898780;29;20209;-71
2024/01/08 05:46:43;;;;;;;2.33;2.25;;;-0.40;99.90;;;;;;4902696;29;20214;-70
2024/01/08 05:49:10;;;;;;;2.53;2.20;;;-0.40;99.90;;;;;;4894735;29;20223;-70
2024/01/08 05:51:37;;;;;;;4.22;3.85;;;-0.50;99.90;;;;;;4894377;29;20236;-70
2024/01/08 05:54:05;;;;;;;2.70;2.63;;;-0.60;99.90;;;;;;4891870;29;20227;-71
2024/01/08 05:56:33;;;;;;;4.30;2.85;;;-0.60;99.90;;;;;;4899200;29;20222;-70
2024/01/08 05:59:00;;;;;;;1.83;1.80;;;-0.60;99.90;;;;;;4895942;29;20208;-71
2024/01/08 06:01:27;;;;;;;2.55;2.45;;;-0.70;99.90;;;;;;4896281;29;20886;-71
2024/01/08 06:03:53;;;;;;;1.58;1.48;;;-0.70;99.90;;;;;;4898081;29;20207;-70
2024/01/08 06:06:20;;;;;;;2.53;2.33;;;-0.80;99.90;;;;;;4899040;29;20296;-70
2024/01/08 06:08:47;;;;;;;3.90;2.65;;;-0.90;99.90;;;;;;4896144;29;20203;-71
2024/01/08 06:11:15;;;;;;;2.90;2.70;;;-0.80;99.90;;;;;;4896367;29;20232;-71
2024/01/08 06:13:42;;;;;;;6.28;2.95;;;-0.90;99.90;;;;;;4893703;29;20250;-71
2024/01/08 06:16:14;;;;;;;5.57;4.57;;;-0.90;99.90;;;;;;4896048;29;20586;-71
2024/01/08 06:18:41;;;;;;;1.65;1.30;;;-1.00;99.90;;;;;;4898733;29;20221;-71
2024/01/08 06:21:08;;;;;;;2.90;2.70;;;-1.00;99.90;;;;;;4896135;29;20290;-71
2024/01/08 06:23:35;;;;;;;1.27;1.27;;;-1.10;99.90;;;;;;4894728;29;20216;-71
2024/01/08 06:26:03;;;;;;;2.08;1.75;;;-1.10;99.90;;;;;;4891090;29;20298;-71
2024/01/08 06:28:32;;;;;;;3.05;1.20;;;-1.10;99.90;;;;;;4891699;29;20310;-71
2024/01/08 06:30:59;;;;;;;2.22;2.05;;;-1.10;99.90;;;;;;4896781;29;20698;-71
2024/01/08 06:33:26;;;;;;;4.53;3.05;;;-1.10;99.90;;;;;;4897591;29;20581;-70
2024/01/08 06:35:53;;;;;;;5.13;3.53;;;-1.10;99.90;;;;;;4897921;29;20215;-70
2024/01/08 06:38:19;;;;;;;3.15;3.05;;;-1.10;99.90;;;;;;4893600;29;20223;-70
2024/01/08 06:40:46;;;;;;;5.22;4.03;;;-1.10;99.90;;;;;;4899079;29;20242;-71
2024/01/08 06:43:13;;;;;;;6.30;2.42;;;-1.10;99.90;;;;;;4892352;29;20288;-71
2024/01/08 06:45:41;;;;;;;2.60;2.40;;;-1.10;99.90;;;;;;4896781;29;20550;-71
2024/01/08 06:48:08;;;;;;;4.18;3.72;;;-1.10;99.90;;;;;;4892238;29;20215;-71
2024/01/08 06:50:36;;;;;;;3.30;2.17;;;-1.10;99.90;;;;;;4893825;29;20852;-71
2024/01/08 06:53:03;;;;;;;3.10;2.88;;;-1.10;99.90;;;;;;4885958;29;20670;-73
2024/01/08 06:55:30;;;;;;;4.22;3.85;;;-1.10;99.90;;;;;;4892047;29;20260;-73
2024/01/08 06:57:57;;;;;;;2.58;2.45;;;-1.10;99.90;;;;;;4895220;29;20221;-73
2024/01/08 07:00:26;;;;;;;1.40;1.40;;;-1.20;99.90;;;;;;4889137;29;20222;-73
2024/01/08 07:02:54;;;;;;;4.35;3.95;;;-1.20;99.90;;;;;;4895157;29;20215;-72
2024/01/08 07:05:20;;;;;;;1.45;1.25;;;-1.20;99.90;;;;;;4897474;29;20207;-73
2024/01/08 07:07:47;;;;;;;2.00;1.90;;;-1.30;99.90;;;;;;4891651;29;20218;-74
2024/01/08 07:10:14;;;;;;;10.63;3.40;;;-1.30;99.90;;;;;;4892217;29;20235;-73
2024/01/08 07:12:40;;;;;;;1.98;1.88;;;-1.30;99.90;;;;;;4892543;29;20656;-73
2024/01/08 07:15:08;;;;;;;2.13;1.95;;;-1.30;99.90;;;;;;4887926;29;20246;-72
2024/01/08 07:17:35;;;;;;;1.35;1.25;;;-1.30;99.90;;;;;;4891386;29;20696;-73
2024/01/08 07:20:03;;;;;;;2.10;2.00;;;-1.30;99.90;;;;;;4893743;29;20204;-73
2024/01/08 07:22:30;;;;;;;1.45;1.35;;;-1.30;99.90;;;;;;4891045;29;20285;-72
2024/01/08 07:24:56;;;;;;;3.08;2.97;;;-1.30;99.90;;;;;;4888441;29;20721;-73
2024/01/08 07:27:23;;;;;;;3.47;3.35;;;-1.30;99.90;;;;;;4897062;29;20207;-73
2024/01/08 07:29:50;;;;;;;4.00;3.00;;;-1.30;99.90;;;;;;4890858;29;20207;-73
2024/01/08 07:32:16;;;;;;;2.92;2.50;;;-1.30;99.90;;;;;;4894478;29;20316;-73
2024/01/08 07:34:43;;;;;;;4.25;1.58;;;-1.30;99.90;;;;;;4892930;29;20227;-73
2024/01/08 07:37:11;;;;;;;4.45;2.22;;;-1.30;99.90;;;;;;4891454;29;20212;-72
2024/01/08 07:39:38;;;;;;;2.72;2.63;;;-1.40;99.90;;;;;;4899157;29;20206;-72
2024/01/08 07:42:05;;;;;;;2.40;1.75;;;-1.40;99.90;;;;;;4891086;29;20874;-72
2024/01/08 07:44:31;;;;;;;3.08;2.58;;;-1.40;99.90;;;;;;4894031;29;20204;-73
2024/01/08 07:46:58;;;;;;;3.97;3.03;;;-1.40;99.90;;;;;;4893060;29;20212;-71
2024/01/08 07:49:25;;;;;;;3.80;2.22;;;-1.40;99.90;;;;;;4890384;29;20215;-72
2024/01/08 07:51:51;;;;;;;4.10;2.47;;;-1.40;99.90;;;;;;4889683;29;20619;-72
2024/01/08 07:54:19;;;;;;;5.45;3.28;;;-1.30;99.90;;;;;;4892978;29;20231;-73
2024/01/08 07:56:47;;;;;;;4.88;2.15;;;-1.40;99.90;;;;;;4891031;29;20211;-73
2024/01/08 07:59:13;;;;;;;3.03;2.83;;;-1.40;99.90;;;;;;4891709;29;20216;-73
2024/01/08 08:01:40;;;;;;;2.67;1.75;;;-1.50;99.90;;;;;;4892840;29;20991;-74
2024/01/08 08:04:07;;;;;;;4.25;2.08;;;-1.50;99.90;;;;;;4894431;29;20207;-74
2024/01/08 08:06:33;;;;;;;3.33;3.13;;;-1.60;99.90;;;;;;4892126;29;20216;-73
2024/01/08 08:09:00;;;;;;;2.80;2.65;;;-1.60;99.90;;;;;;4900980;29;20219;-73
2024/01/08 08:11:28;;;;;;;1.75;1.55;;;-1.60;99.90;;;;;;4898269;29;20231;-73
2024/01/08 08:13:56;;;;;;;2.47;1.75;;;-1.60;99.90;;;;;;4889431;29;20223;-73
2024/01/08 08:16:22;;;;;;;2.78;1.60;;;-1.60;99.90;;;;;;4901058;29;20299;-73
2024/01/08 08:18:49;;;;;;;1.85;1.45;;;-1.60;99.90;;;;;;4893292;29;20216;-75
2024/01/08 08:21:17;;;;;;;2.67;1.70;;;-1.70;99.90;;;;;;4892986;29;20231;-73
2024/01/08 08:23:43;;;;;;;5.07;2.50;;;-1.70;99.90;;;;;;4890853;29;20219;-72
2024/01/08 08:26:10;;;;;;;2.10;2.00;;;-1.70;99.90;;;;;;4896323;29;20212;-73
2024/01/08 08:28:38;;;;;;;2.10;2.00;;;-1.70;99.90;;;;;;4893884;29;20227;-73
2024/01/08 08:31:05;;;;;;;3.70;3.42;;;-1.60;99.90;;;;;;4891691;29;20235;-73
2024/01/08 08:33:31;;;;;;;2.80;1.98;;;-1.60;99.90;;;;;;4894682;29;20219;-73
2024/01/08 08:35:58;;;;;;;5.82;2.17;;;-1.60;99.90;;;;;;4891395;29;20231;-74
2024/01/08 08:38:25;;;;;;;4.35;1.30;;;-1.50;99.90;;;;;;4894058;29;20252;-72
2024/01/08 08:40:51;;;;;;;2.47;2.28;;;-1.50;99.90;;;;;;4892262;29;20239;-73
2024/01/08 08:43:18;;;;;;;3.63;3.33;;;-1.40;99.90;;;;;;4888189;29;20227;-72
2024/01/08 08:45:46;;;;;;;6.03;3.80;;;-1.40;99.90;;;;;;4894480;29;20211;-73
2024/01/08 08:48:13;;;;;;;3.70;3.10;;;-1.40;99.90;;;;;;4896972;29;20215;-73
2024/01/08 08:50:39;;;;;;;2.75;2.10;;;-1.30;99.90;;;;;;4896836;29;20222;-73
2024/01/08 08:53:06;;;;;;;3.05;2.95;;;-1.30;99.90;;;;;;4895529;29;20687;-73
2024/01/08 08:55:33;;;;;;;2.72;2.47;;;-1.20;99.90;;;;;;4891264;29;20245;-74
2024/01/08 08:57:59;;;;;;;3.05;2.85;;;-1.20;99.90;;;;;;4895611;29;20215;-73
2024/01/08 09:00:26;;;;;;;3.38;2.38;;;-1.20;99.90;;;;;;4895854;29;20222;-74
2024/01/08 09:02:56;;;;;;;6.68;2.17;;;-1.20;99.90;;;;;;4895839;29;20215;-73
2024/01/08 09:05:23;;;;;;;2.38;2.10;;;-1.10;99.90;;;;;;4895418;29;20235;-73
2024/01/08 09:07:50;;;;;;;3.72;3.53;;;-1.10;99.90;;;;;;4891677;29;20535;-73
2024/01/08 09:10:16;;;;;;;4.30;2.20;;;-1.20;99.90;;;;;;4897901;29;20219;-73
2024/01/08 09:12:43;;;;;;;2.83;2.63;;;-1.10;99.90;;;;;;4895449;29;20215;-73
2024/01/08 09:15:10;;;;;;;3.60;3.22;;;-1.10;99.90;;;;;;4895399;29;20259;-73
2024/01/08 09:17:37;;;;;;;4.70;2.50;;;-1.10;99.90;;;;;;4890633;29;20212;-73
2024/01/08 09:20:08;;;;;;;1.80;1.65;;;-1.00;99.90;;;;;;4892306;29;20207;-74
2024/01/08 09:22:35;;;;;;;2.28;1.67;;;-1.00;99.90;;;;;;4898056;29;20204;-73
2024/01/08 09:25:03;;;;;;;3.22;2.08;;;-1.10;99.90;;;;;;4897311;29;20564;-73
2024/01/08 09:27:30;;;;;;;2.72;2.63;;;-1.10;99.90;;;;;;4889845;29;20208;-73
2024/01/08 09:29:57;;;;;;;3.60;3.13;;;-1.20;99.90;;;;;;4892518;29;20211;-73
2024/01/08 09:32:24;;;;;;;3.00;2.78;;;-1.20;99.90;;;;;;4894854;29;20599;-73
2024/01/08 09:34:51;;;;;;;4.35;3.20;;;-1.10;99.90;;;;;;4892398;29;20242;-73
2024/01/08 09:37:20;;;;;;;3.78;2.70;;;-1.00;99.90;;;;;;4895640;29;20233;-72
2024/01/08 09:39:47;;;;;;;3.40;2.35;;;-1.00;99.90;;;;;;4892477;29;20218;-74
2024/01/08 09:42:15;;;;;;;5.25;3.38;;;-0.90;99.90;;;;;;4889526;29;20227;-74
2024/01/08 09:44:47;;;;;;;3.78;3.53;;;-0.90;99.90;;;;;;4886259;29;20238;-74
2024/01/08 09:47:16;;;;;;;5.45;2.63;;;-1.00;99.90;;;;;;4890383;29;20233;-73
2024/01/08 09:49:45;;;;;;;2.35;2.15;;;-0.90;99.90;;;;;;4886789;29;20206;-74
2024/01/08 09:52:14;;;;;;;2.72;1.92;;;-0.90;99.90;;;;;;4892285;29;20227;-73
2024/01/08 09:54:42;;;;;;;2.35;2.03;;;-0.90;99.90;;;;;;4897107;29;20227;-73
2024/01/08 09:57:09;;;;;;;5.53;2.88;;;-0.90;99.90;;;;;;4896401;29;20211;-73
2024/01/08 09:59:36;;;;;;;3.75;2.65;;;-0.90;99.90;;;;;;4894562;29;20691;-73
2024/01/08 10:02:04;;;;;;;4.45;3.70;;;-0.90;99.90;;;;;;4893007;29;20251;-73
2024/01/08 10:04:31;;;;;;;1.92;1.58;;;-0.80;99.90;;;;;;4883580;29;20302;-73
2024/01/08 10:07:05;;;;;;;2.97;2.78;;;-0.80;99.90;;;;;;4895330;29;20612;-73
2024/01/08 10:09:31;;;;;;;3.97;3.70;;;-0.80;99.90;;;;;;4895189;29;20289;-73
2024/01/08 10:11:59;;;;;;;3.97;2.70;;;-0.80;99.90;;;;;;4893192;29;20231;-73
2024/01/08 10:14:27;;;;;;;4.82;2.28;;;-0.80;99.90;;;;;;4894676;29;20216;-72
2024/01/08 10:16:54;;;;;;;1.83;1.73;;;-0.70;99.90;;;;;;4884176;29;20216;-73
2024/01/08 10:19:23;;;;;;;3.90;3.60;;;-0.70;99.90;;;;;;4890468;29;20215;-73
2024/01/08 10:22:07;;;;;;;2.35;2.25;;;-0.60;99.90;;;;;;4892722;29;20238;-73
2024/01/08 10:24:33;;;;;;;3.03;1.77;;;-0.60;99.90;;;;;;4898128;29;20220;-73
2024/01/08 10:27:03;;;;;;;1.92;1.80;;;-0.50;99.90;;;;;;4892758;29;20208;-72
2024/01/08 10:29:29;;;;;;;2.78;2.58;;;-0.50;99.90;;;;;;4887487;29;20718;-73
2024/01/08 10:31:56;;;;;;;4.85;2.17;;;-0.40;99.90;;;;;;4894800;29;20235;-73
2024/01/08 10:34:24;;;;;;;2.60;2.40;;;-0.30;99.90;;;;;;4895852;29;20215;-73
2024/01/08 10:36:52;;;;;;;1.55;1.25;;;-0.30;99.90;;;;;;4893442;29;20216;-73
2024/01/08 10:39:20;;;;;;;1.80;1.80;;;-0.20;99.90;;;;;;4885945;29;20219;-73
2024/01/08 10:41:47;;;;;;;3.30;1.88;;;-0.20;99.90;;;;;;4888636;29;20357;-72
2024/01/08 10:44:15;;;;;;;1.80;1.70;;;-0.20;99.90;;;;;;4887375;29;20215;-74
2024/01/08 10:46:48;;;;;;;2.30;1.85;;;-0.20;99.90;;;;;;4888848;29;20211;-73
2024/01/08 10:49:19;;;;;;;1.98;1.80;;;-0.10;99.90;;;;;;4887029;29;20598;-73
2024/01/08 10:51:48;;;;;;;2.58;1.85;;;-0.10;99.90;;;;;;4885975;29;21203;-74
2024/01/08 10:54:17;;;;;;;2.28;2.15;;;0.00;99.90;;;;;;4897168;29;20207;-73
2024/01/08 10:56:45;;;;;;;2.40;2.20;;;0.10;99.90;;;;;;4891247;29;20284;-74
2024/01/08 10:59:13;;;;;;;0.90;0.73;;;0.20;99.90;;;;;;4890550;29;20212;-73
2024/01/08 11:01:41;;;;;;;2.10;1.75;;;0.30;99.90;;;;;;4889365;29;20249;-74
2024/01/08 11:04:09;;;;;;;2.58;2.17;;;0.30;99.90;;;;;;4891411;29;20217;-73
2024/01/08 11:06:38;;;;;;;2.60;2.28;;;0.40;99.90;;;;;;4890397;29;20207;-74
2024/01/08 11:09:05;;;;;;;0.95;0.95;;;0.50;99.90;;;;;;4887844;29;20222;-73
2024/01/08 11:11:34;;;;;;;3.17;2.45;;;0.60;99.90;;;;;;4886102;29;20790;-73
2024/01/08 11:14:03;;;;;;;2.83;2.20;;;0.60;99.90;;;;;;4891561;29;20294;-72
2024/01/08 11:16:30;;;;;;;4.97;2.40;;;0.70;99.90;;;;;;4881822;29;20239;-73
2024/01/08 11:19:27;;;;;;;1.45;1.35;;;0.70;99.90;;;;;;4889877;29;20847;-72
2024/01/08 11:22:11;;;;;;;2.22;2.08;;;0.80;99.90;;;;;;4883048;29;20245;-72
2024/01/08 11:24:38;;;;;;;2.28;2.17;;;0.90;99.90;;;;;;4885949;29;20282;-73
2024/01/08 11:27:05;;;;;;;3.50;1.73;;;0.90;99.90;;;;;;4891675;29;20237;-74
2024/01/08 11:29:33;;;;;;;2.03;1.92;;;1.00;99.90;;;;;;4890358;29;20584;-73
2024/01/08 11:32:36;;;;;;;1.73;1.63;;;1.00;99.90;;;;;;4892372;29;20231;-73
2024/01/08 11:35:06;;;;;;;1.90;1.80;;;1.00;99.90;;;;;;4876182;29;20261;-73
2024/01/08 11:37:34;;;;;;;1.73;1.52;;;1.00;99.90;;;;;;4885723;29;20286;-73
2024/01/08 11:40:03;;;;;;;2.75;2.30;;;0.90;99.90;;;;;;4890207;29;20211;-74
2024/01/08 11:42:31;;;;;;;1.95;1.20;;;0.90;99.90;;;;;;4893602;29;20769;-73
2024/01/08 11:44:59;;;;;;;1.85;1.65;;;0.70;99.90;;;;;;4887038;29;20209;-74
2024/01/08 11:47:25;;;;;;;0.85;0.85;;;0.70;99.90;;;;;;4884368;29;20267;-73
2024/01/08 11:49:52;;;;;;;0.77;0.75;;;0.70;99.90;;;;;;4894509;29;20207;-74
2024/01/08 11:52:20;;;;;;;0.95;0.95;;;0.80;99.90;;;;;;4894660;29;20712;-74
2024/01/08 11:54:48;;;;;;;1.15;1.15;;;0.80;99.90;;;;;;4897309;29;20207;-74
2024/01/08 11:57:17;;;;;;;1.85;1.02;;;0.90;99.90;;;;;;4896863;29;20222;-74
2024/01/08 11:59:44;;;;;;;2.33;2.13;;;1.00;99.90;;;;;;4894266;29;20208;-74
2024/01/08 12:02:15;;;;;;;1.23;1.20;;;1.00;99.90;;;;;;4891847;29;20270;-74
2024/01/08 12:04:42;;;;;;;1.20;1.20;;;1.10;99.90;;;;;;4888719;29;20263;-72
2024/01/08 12:07:12;;;;;;;1.50;1.40;;;1.20;99.90;;;;;;4887901;29;20204;-71
2024/01/08 12:09:40;;;;;;;1.58;1.58;;;1.30;99.90;;;;;;4889735;29;20211;-74
2024/01/08 12:12:09;;;;;;;1.08;1.08;;;1.30;99.90;;;;;;4894663;29;20232;-69
2024/01/08 12:14:37;;;;;;;1.75;1.63;;;1.40;99.90;;;;;;4889088;29;20226;-74
2024/01/08 12:17:04;;;;;;;2.33;2.22;;;1.30;99.90;;;;;;4893745;29;20266;-74
2024/01/08 12:19:36;;;;;;;0.82;0.82;;;1.30;99.90;;;;;;4893853;29;20203;-73
2024/01/08 12:22:05;;;;;;;1.00;1.00;;;1.30;99.90;;;;;;4886836;29;20231;-73
2024/01/08 12:24:32;;;;;;;0.52;0.52;;;1.40;99.90;;;;;;4889979;29;20282;-73
2024/01/08 12:27:04;;;;;;;1.10;1.10;;;1.30;99.90;;;;;;4890593;29;20219;-74
2024/01/08 12:29:31;;;;;;;1.23;1.13;;;1.20;99.90;;;;;;4900954;29;20218;-75
2024/01/08 12:31:59;;;;;;;1.65;1.55;;;1.20;99.90;;;;;;4900715;29;20226;-73
2024/01/08 12:34:29;;;;;;;1.63;1.52;;;1.10;99.90;;;;;;4895900;29;20885;-74
2024/01/08 12:36:57;;;;;;;0.60;0.60;;;1.00;99.90;;;;;;4896740;29;20285;-74
2024/01/08 12:39:25;;;;;;;1.33;1.33;;;1.00;99.90;;;;;;4894059;29;20631;-74
2024/01/08 12:41:55;;;;;;;1.65;1.45;;;1.00;99.90;;;;;;4893592;29;20235;-74
2024/01/08 12:44:26;;;;;;;2.30;2.15;;;0.90;99.90;;;;;;4889946;29;20251;-73
2024/01/08 12:46:53;;;;;;;2.08;2.00;;;1.00;99.90;;;;;;4888218;29;20223;-73
2024/01/08 12:49:20;;;;;;;0.90;0.90;;;1.00;99.90;;;;;;4890904;29;20227;-73
2024/01/08 12:51:47;;;;;;;2.00;1.02;;;1.00;99.90;;;;;;4895522;29;20582;-73
2024/01/08 12:54:14;;;;;;;1.40;1.40;;;0.90;99.90;;;;;;4893679;29;20218;-73
2024/01/08 12:56:40;;;;;;;2.20;1.20;;;0.90;99.90;;;;;;4892644;29;20232;-75
2024/01/08 12:59:07;;;;;;;1.45;1.42;;;0.90;99.90;;;;;;4895164;29;20246;-71
2024/01/08 13:01:36;;;;;;;1.40;1.40;;;1.00;99.90;;;;;;4894024;29;20245;-75
2024/01/08 13:04:03;;;;;;;1.67;1.30;;;1.00;99.90;;;;;;4892680;29;20595;-74
2024/01/08 13:06:30;;;;;;;2.05;1.95;;;1.00;99.90;;;;;;4894037;29;20231;-74
2024/01/08 13:08:56;;;;;;;1.60;1.55;;;0.90;99.90;;;;;;4890332;29;20211;-75
2024/01/08 13:11:23;;;;;;;1.15;1.13;;;0.80;99.90;;;;;;4889739;29;20257;-74
2024/01/08 13:13:50;;;;;;;1.27;1.27;;;0.80;99.90;;;;;;4894175;29;20211;-74
2024/01/08 13:16:17;;;;;;;0.77;0.77;;;0.80;99.90;;;;;;4892391;29;20224;-74
2024/01/08 13:18:45;;;;;;;1.42;1.40;;;0.80;99.90;;;;;;4891696;29;20214;-74
2024/01/08 13:21:12;;;;;;;1.83;1.73;;;0.70;99.90;;;;;;4890705;29;20246;-74
2024/01/08 13:23:39;;;;;;;1.10;1.10;;;0.70;99.90;;;;;;4894948;29;20215;-73
2024/01/08 13:26:06;;;;;;;2.00;1.85;;;0.70;99.90;;;;;;4892363;29;20551;-74
2024/01/08 13:28:32;;;;;;;1.80;1.70;;;0.70;99.90;;;;;;4891880;29;20259;-73
2024/01/08 13:30:59;;;;;;;0.90;0.90;;;0.70;99.90;;;;;;4894090;29;20234;-74
2024/01/08 13:33:26;;;;;;;2.92;1.73;;;0.70;99.90;;;;;;4890676;29;20211;-74
2024/01/08 13:35:55;;;;;;;2.53;2.33;;;0.70;99.90;;;;;;4879724;29;20476;-73
2024/01/08 13:38:22;;;;;;;1.85;1.42;;;0.60;99.90;;;;;;4890441;29;20216;-74
2024/01/08 13:40:49;;;;;;;2.13;2.03;;;0.60;99.90;;;;;;4882353;29;20348;-74
2024/01/08 13:43:16;;;;;;;1.10;1.10;;;0.60;99.90;;;;;;4885099;29;20211;-74
2024/01/08 13:45:43;;;;;;;1.25;1.25;;;0.60;99.90;;;;;;4885573;29;20225;-75
2024/01/08 13:48:11;;;;;;;1.33;1.33;;;0.50;99.90;;;;;;4896393;29;20340;-75
2024/01/08 13:50:39;;;;;;;1.00;1.00;;;0.50;99.90;;;;;;4890561;29;20223;-74
2024/01/08 13:53:08;;;;;;;4.40;2.00;;;0.50;99.90;;;;;;4891856;29;20219;-74
2024/01/08 13:55:35;;;;;;;6.78;2.03;;;0.50;99.90;;;;;;4880064;29;20212;-74
2024/01/08 13:58:02;;;;;;;2.22;2.10;;;0.50;99.90;;;;;;4896144;29;20211;-74
2024/01/08 14:00:29;;;;;;;2.20;2.10;;;0.40;99.90;;;;;;4889170;29;20310;-74
2024/01/08 14:02:58;;;;;;;2.72;1.15;;;0.40;99.90;;;;;;4890053;29;20252;-74
2024/01/08 14:05:24;;;;;;;1.10;1.10;;;0.40;99.90;;;;;;4895064;29;20211;-74
2024/01/08 14:07:51;;;;;;;1.13;1.13;;;0.40;99.90;;;;;;4888360;29;20211;-75
2024/01/08 14:10:20;;;;;;;1.52;1.42;;;0.30;99.90;;;;;;4888216;29;20211;-74
2024/01/08 14:12:47;;;;;;;1.08;0.98;;;0.30;99.90;;;;;;4885387;29;20646;-73
2024/01/08 14:15:16;;;;;;;1.40;1.30;;;0.30;99.90;;;;;;4889961;29;20215;-73
2024/01/08 14:17:43;;;;;;;0.60;0.60;;;0.30;99.90;;;;;;4886557;29;20235;-73
2024/01/08 14:20:11;;;;;;;1.60;1.42;;;0.30;99.90;;;;;;4890177;29;20256;-73
2024/01/08 14:22:38;;;;;;;2.28;1.60;;;0.20;99.90;;;;;;4900082;29;20207;-74
2024/01/08 14:25:07;;;;;;;4.78;2.72;;;0.20;99.90;;;;;;4894267;29;20557;-73
2024/01/08 14:27:36;;;;;;;2.22;2.13;;;0.20;99.90;;;;;;4893338;29;20207;-74
2024/01/08 14:30:04;;;;;;;1.55;1.50;;;0.20;99.90;;;;;;4896010;29;20642;-73
2024/01/08 14:32:31;;;;;;;4.53;1.52;;;0.10;99.90;;;;;;4894786;29;20255;-74
2024/01/08 14:34:57;;;;;;;2.47;2.38;;;0.10;99.90;;;;;;4893830;29;20230;-74
2024/01/08 14:37:24;;;;;;;1.30;1.30;;;0.10;99.90;;;;;;4889700;29;20610;-73
2024/01/08 14:39:51;;;;;;;2.00;2.00;;;0.10;99.90;;;;;;4896717;29;20475;-75
2024/01/08 14:42:17;;;;;;;1.75;1.75;;;0.00;99.90;;;;;;4892503;29;20235;-74
2024/01/08 14:44:45;;;;;;;5.68;2.42;;;0.00;99.90;;;;;;4902060;29;20215;-74
2024/01/08 14:47:12;;;;;;;2.10;2.00;;;0.00;99.90;;;;;;4896802;29;20211;-74
2024/01/08 14:49:39;;;;;;;1.60;1.50;;;-0.10;99.90;;;;;;4902528;29;20290;-74
2024/01/08 14:52:06;;;;;;;3.22;1.10;;;-0.10;99.90;;;;;;4895371;29;20236;-74
2024/01/08 14:54:33;;;;;;;1.75;1.73;;;-0.10;99.90;;;;;;4893472;29;20233;-74
2024/01/08 14:56:59;;;;;;;3.78;2.38;;;-0.20;99.90;;;;;;4887877;29;20235;-73
2024/01/08 14:59:26;;;;;;;2.95;2.83;;;-0.20;99.90;;;;;;4887361;29;20206;-74
2024/01/08 15:01:54;;;;;;;4.40;2.60;;;-0.20;99.90;;;;;;4888628;29;20666;-74
2024/01/08 15:04:21;;;;;;;1.55;1.55;;;-0.20;99.90;;;;;;4898493;29;20210;-74
2024/01/08 15:06:48;;;;;;;3.97;1.80;;;-0.20;99.90;;;;;;4895557;29;20548;-73
2024/01/08 15:09:14;;;;;;;2.10;2.00;;;-0.30;99.90;;;;;;4891983;29;20215;-73
2024/01/08 15:11:41;;;;;;;4.38;2.17;;;-0.30;99.90;;;;;;4885670;29;20235;-73
2024/01/08 15:14:08;;;;;;;2.28;2.28;;;-0.30;99.90;;;;;;4885734;29;20218;-72
2024/01/08 15:16:34;;;;;;;1.85;1.75;;;-0.30;99.90;;;;;;4891314;29;20227;-72
2024/01/08 15:19:04;;;;;;;0.80;0.80;;;-0.40;99.90;;;;;;4893988;29;20253;-71
2024/01/08 15:21:30;;;;;;;0.73;0.73;;;-0.40;99.90;;;;;;4894890;29;20591;-72
2024/01/08 15:23:57;;;;;;;1.25;1.15;;;-0.40;99.90;;;;;;4899702;29;20215;-73
2024/01/08 15:26:24;;;;;;;3.35;1.60;;;-0.40;99.90;;;;;;4896747;29;20543;-73
2024/01/08 15:28:50;;;;;;;3.00;2.88;;;-0.40;99.90;;;;;;4895078;29;20218;-73
2024/01/08 15:31:18;;;;;;;2.65;1.75;;;-0.40;99.90;;;;;;4896871;29;20230;-73
2024/01/08 15:33:47;;;;;;;2.13;2.03;;;-0.50;99.90;;;;;;4895029;29;20690;-72
2024/01/08 15:36:15;;;;;;;1.80;1.70;;;-0.50;99.90;;;;;;4902871;29;20206;-72
2024/01/08 15:38:42;;;;;;;1.27;1.27;;;-0.50;99.90;;;;;;4906857;29;20213;-72
2024/01/08 15:41:08;;;;;;;0.95;0.95;;;-0.60;99.90;;;;;;4913447;29;20252;-72
2024/01/08 15:43:35;;;;;;;1.45;1.45;;;-0.60;99.90;;;;;;4904221;29;20608;-72
2024/01/08 15:46:03;;;;;;;1.55;1.55;;;-0.60;99.90;;;;;;4897644;29;20207;-72
2024/01/08 15:48:30;;;;;;;1.42;0.95;;;-0.60;99.90;;;;;;4900493;29;20207;-73
2024/01/08 15:50:57;;;;;;;6.10;1.95;;;-0.70;99.90;;;;;;4913749;29;20595;-73
2024/01/08 15:53:25;;;;;;;2.83;1.55;;;-0.70;99.90;;;;;;4912242;29;20214;-72
2024/01/08 15:55:52;;;;;;;1.17;1.05;;;-0.70;99.90;;;;;;4913082;29;20207;-72
2024/01/08 15:58:19;;;;;;;2.30;2.20;;;-0.70;99.90;;;;;;4905615;29;20239;-72
2024/01/08 16:00:45;;;;;;;2.85;2.65;;;-0.80;99.90;;;;;;4896315;29;20635;-72
2024/01/08 16:03:12;;;;;;;2.15;2.05;;;-0.80;99.90;;;;;;4894925;29;20211;-72
2024/01/08 16:05:39;;;;;;;2.78;2.53;;;-0.80;99.90;;;;;;4893863;29;20215;-72
2024/01/08 16:08:09;;;;;;;2.70;2.60;;;-0.90;99.90;;;;;;4900607;29;20211;-71
2024/01/08 16:10:37;;;;;;;1.70;1.70;;;-0.90;99.90;;;;;;4904306;29;20249;-71
2024/01/08 16:13:04;;;;;;;2.72;2.47;;;-0.90;99.90;;;;;;4893199;29;20215;-71
2024/01/08 16:15:31;;;;;;;1.63;1.38;;;-0.90;99.90;;;;;;4892432;29;20220;-71
2024/01/08 16:17:57;;;;;;;1.45;1.45;;;-1.00;99.90;;;;;;4891490;29;20254;-70
2024/01/08 16:20:25;;;;;;;1.10;1.10;;;-1.00;99.90;;;;;;4895926;29;20302;-70
2024/01/08 16:22:52;;;;;;;3.58;2.13;;;-1.00;99.90;;;;;;4894046;29;20676;-70
2024/01/08 16:25:19;;;;;;;2.70;1.85;;;-1.10;99.90;;;;;;4902410;29;20206;-71
2024/01/08 16:27:47;;;;;;;2.58;2.10;;;-1.10;99.90;;;;;;4893976;29;20212;-71
2024/01/08 16:30:15;;;;;;;1.92;1.83;;;-1.10;99.90;;;;;;4899214;29;20211;-72
2024/01/08 16:32:41;;;;;;;1.95;1.85;;;-1.20;99.90;;;;;;4902934;29;20690;-71
2024/01/08 16:35:08;;;;;;;2.15;1.55;;;-1.20;99.90;;;;;;4892043;29;20218;-72
2024/01/08 16:37:35;;;;;;;2.60;2.03;;;-1.20;99.90;;;;;;4897599;29;20219;-70
2024/01/08 16:40:02;;;;;;;4.68;3.00;;;-1.20;99.90;;;;;;4898878;29;20593;-70
2024/01/08 16:42:29;;;;;;;2.45;2.35;;;-1.20;99.90;;;;;;4897754;29;20237;-70
2024/01/08 16:44:57;;;;;;;1.05;1.05;;;-1.30;99.90;;;;;;4891769;29;20208;-72
2024/01/08 16:47:24;;;;;;;1.38;1.38;;;-1.30;99.90;;;;;;4896677;29;20204;-73
2024/01/08 16:49:51;;;;;;;2.05;1.85;;;-1.30;99.90;;;;;;4899091;29;20211;-72
2024/01/08 16:52:18;;;;;;;3.63;2.10;;;-1.30;99.90;;;;;;4893220;29;20251;-72
2024/01/08 16:54:44;;;;;;;2.70;2.05;;;-1.30;99.90;;;;;;4905878;29;20217;-72
2024/01/08 16:57:13;;;;;;;3.20;2.85;;;-1.40;99.90;;;;;;4895451;29;20695;-72
2024/01/08 16:59:39;;;;;;;3.05;2.95;;;-1.40;99.90;;;;;;4898271;29;20242;-72
2024/01/08 17:02:08;;;;;;;1.20;1.20;;;-1.40;99.90;;;;;;4889594;29;20250;-72
2024/01/08 17:04:35;;;;;;;5.80;2.80;;;-1.40;99.90;;;;;;4901145;29;20616;-73
2024/01/08 17:07:02;;;;;;;5.55;3.22;;;-1.40;99.90;;;;;;4893434;29;20218;-72
2024/01/08 17:09:29;;;;;;;3.45;2.10;;;-1.50;99.90;;;;;;4905671;29;20215;-73
2024/01/08 17:11:55;;;;;;;2.58;2.35;;;-1.50;99.90;;;;;;4896480;29;20242;-73
2024/01/08 17:14:22;;;;;;;2.60;2.50;;;-1.50;99.90;;;;;;4904374;29;20722;-73
2024/01/08 17:16:50;;;;;;;3.40;1.65;;;-1.50;99.90;;;;;;4897858;29;20227;-73
2024/01/08 17:19:18;;;;;;;1.42;0.98;;;-1.60;99.90;;;;;;4889382;29;20206;-73
2024/01/08 17:21:44;;;;;;;2.45;2.42;;;-1.60;99.90;;;;;;4891482;29;20235;-73
2024/01/08 17:24:11;;;;;;;2.78;2.58;;;-1.60;99.90;;;;;;4897559;29;20211;-72
2024/01/08 17:26:39;;;;;;;3.20;1.95;;;-1.60;99.90;;;;;;4895584;29;20219;-73
2024/01/08 17:29:06;;;;;;;5.70;2.90;;;-1.60;99.90;;;;;;4890438;29;20263;-73
2024/01/08 17:31:33;;;;;;;4.80;2.20;;;-1.70;99.90;;;;;;4897835;29;20319;-73
2024/01/08 17:34:00;;;;;;;3.03;2.92;;;-1.70;99.90;;;;;;4900366;29;20821;-74
2024/01/08 17:36:29;;;;;;;4.40;3.05;;;-1.70;99.90;;;;;;4893954;29;20569;-74
2024/01/08 17:38:56;;;;;;;3.67;2.45;;;-1.70;99.90;;;;;;4900799;29;20614;-73
2024/01/08 17:41:23;;;;;;;5.43;4.55;;;-1.80;99.90;;;;;;4896673;29;20262;-74
2024/01/08 17:43:50;;;;;;;2.28;2.22;;;-1.80;99.90;;;;;;4889384;29;20223;-74
2024/01/08 17:46:17;;;;;;;2.47;2.47;;;-1.80;99.90;;;;;;4889221;29;20216;-74
2024/01/08 17:48:44;;;;;;;4.53;2.03;;;-1.80;99.90;;;;;;4892931;29;20546;-74
2024/01/08 17:51:10;;;;;;;2.63;2.47;;;-1.90;99.90;;;;;;4897753;29;20606;-73
2024/01/08 17:53:38;;;;;;;2.50;2.40;;;-1.90;99.90;;;;;;4905261;29;20211;-73